Terminal Aerodrome Forecast
Issued by NWS

Home | Current Version | Previous Version | Text Only | Print | Product List | Glossary On
Versions: 1 2 3 4 5 6 7 8 9 10 11 12 13 14 15 16 17
000
FTUS46 KSGX 042337 CCA
TAFCRQ
TAF COR
KCRQ 042337Z 0500/0524 26010KT P6SM BKN021
      TEMPO 0500/0503 SCT022
     FM050300 VRB05KT P6SM OVC022
     FM051230 VRB05KT P6SM OVC030
     FM051930 26010KT P6SM SCT035=

USA.gov is the U.S. government's official web portal to all federal, state and local government web resources and services.